createdAt,value
2018-11-02T00:02:16.543Z,9.30
2018-11-02T00:04:44.865Z,9.30
2018-11-02T00:07:12.914Z,9.20
2018-11-02T00:09:40.918Z,9.30
2018-11-02T00:12:08.987Z,9.20
2018-11-02T00:14:37.011Z,9.20
2018-11-02T00:17:05.046Z,9.10
2018-11-02T00:19:34.163Z,9.10
2018-11-02T00:22:03.777Z,9.10
2018-11-02T00:24:35.133Z,9.10
2018-11-02T00:27:03.254Z,9.10
2018-11-02T00:29:32.471Z,9.00
2018-11-02T00:32:00.738Z,9.00
2018-11-02T00:34:28.988Z,9.00
2018-11-02T00:36:57.005Z,9.00
2018-11-02T00:39:25.024Z,9.00
2018-11-02T00:41:53.264Z,8.90
2018-11-02T00:44:21.279Z,8.90
2018-11-02T00:46:49.325Z,8.90
2018-11-02T00:49:17.421Z,8.90
2018-11-02T00:51:45.422Z,8.90
2018-11-02T00:54:13.785Z,8.90
2018-11-02T00:56:41.878Z,8.90
2018-11-02T00:59:09.890Z,8.90
2018-11-02T01:01:38.179Z,8.90
2018-11-02T01:04:06.215Z,8.90
2018-11-02T01:06:34.217Z,8.90
2018-11-02T01:09:02.285Z,8.80
2018-11-02T01:11:30.380Z,8.80
2018-11-02T01:13:58.468Z,8.70
2018-11-02T01:16:26.516Z,8.60
2018-11-02T01:18:54.542Z,8.60
2018-11-02T01:21:22.586Z,8.50
2018-11-02T01:23:50.589Z,8.50
2018-11-02T01:26:18.666Z,8.40
2018-11-02T01:28:46.765Z,8.30
2018-11-02T01:31:14.845Z,8.30
2018-11-02T01:33:42.849Z,8.20
2018-11-02T01:36:10.914Z,8.20
2018-11-02T01:38:38.913Z,8.20
2018-11-02T01:41:07.214Z,8.20
2018-11-02T01:43:35.282Z,8.20
2018-11-02T01:46:03.387Z,8.20
2018-11-02T01:48:31.365Z,8.20
2018-11-02T01:50:59.722Z,8.20
2018-11-02T01:53:28.030Z,8.20
2018-11-02T01:55:56.038Z,8.20
2018-11-02T01:58:24.069Z,8.20
2018-11-02T02:00:52.126Z,8.20
2018-11-02T02:03:20.107Z,8.20
2018-11-02T02:05:48.268Z,8.20
2018-11-02T02:08:16.287Z,8.20
2018-11-02T02:10:44.400Z,8.00
2018-11-02T02:13:12.474Z,7.90
2018-11-02T02:15:40.454Z,7.70
2018-11-02T02:18:08.549Z,7.70
2018-11-02T02:20:36.553Z,7.60
2018-11-02T02:23:04.766Z,7.70
2018-11-02T02:25:32.810Z,7.70
2018-11-02T02:28:00.894Z,7.60
2018-11-02T02:30:28.946Z,7.60
2018-11-02T02:32:57.058Z,7.60
2018-11-02T02:35:25.066Z,7.60
2018-11-02T02:37:53.213Z,7.50
2018-11-02T02:40:21.361Z,7.60
2018-11-02T02:42:49.472Z,7.60
2018-11-02T02:45:17.587Z,7.70
2018-11-02T02:47:45.594Z,7.80
2018-11-02T02:50:14.394Z,7.80
2018-11-02T02:52:43.577Z,7.80
2018-11-02T02:55:11.641Z,7.80
2018-11-02T02:57:39.747Z,7.80
2018-11-02T03:00:09.794Z,7.80
2018-11-02T03:02:37.863Z,7.70
2018-11-02T03:05:05.898Z,7.80
2018-11-02T03:07:33.917Z,7.70
2018-11-02T03:10:02.006Z,7.70
2018-11-02T03:12:30.027Z,7.70
2018-11-02T03:14:58.099Z,7.70
2018-11-02T03:17:26.460Z,7.70
2018-11-02T03:19:54.518Z,7.70
2018-11-02T03:22:22.697Z,7.70
2018-11-02T03:24:50.647Z,7.60
2018-11-02T03:27:18.795Z,7.70
2018-11-02T03:29:46.829Z,7.70
2018-11-02T03:32:14.857Z,7.70
2018-11-02T03:34:42.858Z,7.70
2018-11-02T03:37:10.922Z,7.80
2018-11-02T03:39:38.980Z,7.80
2018-11-02T03:42:07.398Z,7.70
2018-11-02T03:44:35.453Z,7.80
2018-11-02T03:47:03.578Z,7.80
2018-11-02T03:49:31.613Z,7.60
2018-11-02T03:51:59.622Z,7.60
2018-11-02T03:54:27.977Z,7.60
2018-11-02T03:56:56.060Z,7.50
2018-11-02T03:59:24.047Z,7.50
2018-11-02T04:01:52.273Z,7.50
2018-11-02T04:04:20.321Z,7.40
2018-11-02T04:06:48.671Z,7.40
2018-11-02T04:09:16.693Z,7.40
2018-11-02T04:11:44.670Z,7.30
2018-11-02T04:16:47.251Z,7.30
2018-11-02T04:19:15.734Z,7.30
2018-11-02T04:21:47.089Z,7.50
2018-11-02T04:24:15.154Z,7.60
2018-11-02T04:26:43.266Z,7.60
2018-11-02T04:29:12.678Z,7.60
2018-11-02T04:31:41.178Z,7.70
2018-11-02T04:34:09.370Z,7.70
2018-11-02T04:36:37.454Z,7.90
2018-11-02T04:39:07.813Z,7.90
2018-11-02T04:41:36.049Z,7.90
2018-11-02T04:44:04.158Z,7.90
2018-11-02T04:46:32.197Z,7.80
2018-11-02T04:49:00.530Z,7.80
2018-11-02T04:51:28.623Z,7.70
2018-11-02T04:53:56.626Z,7.50
2018-11-02T04:56:25.595Z,7.40
2018-11-02T04:58:53.671Z,7.30
2018-11-02T05:01:22.386Z,7.20
2018-11-02T05:03:50.561Z,7.10
2018-11-02T05:06:18.959Z,7.10
2018-11-02T05:08:46.978Z,7.10
2018-11-02T05:11:15.611Z,7.10
2018-11-02T05:13:43.729Z,6.90
2018-11-02T05:16:11.791Z,6.90
2018-11-02T05:18:39.906Z,6.80
2018-11-02T05:21:08.667Z,6.70
2018-11-02T05:23:37.082Z,6.90
2018-11-02T05:26:05.373Z,6.80
2018-11-02T05:28:33.879Z,6.80
2018-11-02T05:31:01.901Z,6.60
2018-11-02T05:33:30.037Z,6.50
2018-11-02T05:35:58.329Z,6.40
2018-11-02T05:38:26.345Z,6.60
2018-11-02T05:40:54.697Z,6.50
2018-11-02T05:43:22.702Z,6.50
2018-11-02T05:45:50.710Z,6.40
2018-11-02T05:48:18.756Z,6.50
2018-11-02T05:50:46.825Z,6.40
2018-11-02T05:53:14.879Z,6.30
2018-11-02T05:55:42.897Z,6.20
2018-11-02T05:58:10.983Z,6.10
2018-11-02T06:00:39.022Z,6.00
2018-11-02T06:03:07.054Z,6.00
2018-11-02T06:05:35.246Z,5.90
2018-11-02T06:08:03.471Z,5.80
2018-11-02T06:10:31.435Z,5.80
2018-11-02T06:12:59.600Z,5.60
2018-11-02T06:15:27.779Z,5.70
2018-11-02T06:17:55.989Z,5.80
2018-11-02T06:20:24.006Z,5.90
2018-11-02T06:22:52.134Z,6.00
2018-11-02T06:25:20.215Z,6.00
2018-11-02T06:27:48.254Z,5.90
2018-11-02T06:30:16.290Z,5.80
2018-11-02T06:32:44.429Z,5.80
2018-11-02T06:35:12.414Z,5.60
2018-11-02T06:37:40.451Z,5.50
2018-11-02T06:40:08.449Z,5.40
2018-11-02T06:42:36.943Z,5.30
2018-11-02T06:45:06.155Z,5.30
2018-11-02T06:47:34.419Z,5.40
2018-11-02T06:50:02.430Z,5.30
2018-11-02T06:52:30.437Z,5.30
2018-11-02T06:54:58.557Z,5.20
2018-11-02T06:57:26.615Z,5.20
2018-11-02T06:59:54.769Z,5.20
2018-11-02T07:02:22.654Z,5.30
2018-11-02T07:04:50.813Z,5.30
2018-11-02T07:07:19.352Z,5.20
2018-11-02T07:09:47.286Z,5.30
2018-11-02T07:12:15.357Z,5.50
2018-11-02T07:14:43.398Z,5.70
2018-11-02T07:17:11.442Z,6.00
2018-11-02T07:19:39.514Z,6.30
2018-11-02T07:22:07.590Z,6.50
2018-11-02T07:24:35.754Z,6.50
2018-11-02T07:27:03.865Z,6.70
2018-11-02T07:29:31.941Z,6.90
2018-11-02T07:31:59.980Z,7.00
2018-11-02T07:34:28.127Z,7.40
2018-11-02T07:36:56.071Z,7.70
2018-11-02T07:39:24.158Z,8.00
2018-11-02T07:41:52.250Z,8.30
2018-11-02T07:44:20.289Z,8.60
2018-11-02T07:46:48.329Z,8.70
2018-11-02T07:49:16.575Z,8.90
2018-11-02T07:51:44.557Z,9.00
2018-11-02T07:54:12.606Z,9.10
2018-11-02T07:56:40.652Z,9.20
2018-11-02T07:59:08.667Z,9.20
2018-11-02T08:01:36.802Z,9.40
2018-11-02T08:04:05.439Z,9.50
2018-11-02T08:06:33.211Z,9.60
2018-11-02T08:09:01.223Z,9.70
2018-11-02T08:11:29.341Z,9.90
2018-11-02T08:13:57.705Z,10.00
2018-11-02T08:16:25.713Z,10.20
2018-11-02T08:18:53.837Z,10.30
2018-11-02T08:23:56.763Z,10.60
2018-11-02T08:26:24.782Z,10.70
2018-11-02T08:28:52.917Z,10.80
2018-11-02T08:31:21.270Z,10.80
2018-11-02T08:33:49.442Z,10.90
2018-11-02T08:36:17.718Z,11.00
2018-11-02T08:38:46.014Z,11.20
2018-11-02T08:41:14.034Z,11.30
2018-11-02T08:43:42.190Z,11.50
2018-11-02T08:46:10.238Z,11.50
2018-11-02T08:48:38.254Z,11.60
2018-11-02T08:51:06.541Z,11.70
2018-11-02T08:53:34.595Z,11.80
2018-11-02T08:56:03.042Z,11.90
2018-11-02T08:58:31.316Z,12.00
2018-11-02T09:00:59.146Z,12.30
2018-11-02T09:03:27.414Z,12.50
2018-11-02T09:05:55.447Z,12.60
2018-11-02T09:08:23.505Z,12.90
2018-11-02T09:10:51.584Z,12.90
2018-11-02T09:13:19.607Z,13.00
2018-11-02T09:15:47.676Z,13.20
2018-11-02T09:18:15.843Z,13.40
2018-11-02T09:20:43.851Z,13.40
2018-11-02T09:23:11.964Z,13.50
2018-11-02T09:25:40.114Z,13.70
2018-11-02T09:28:08.217Z,13.80
2018-11-02T09:30:36.470Z,13.70
2018-11-02T09:33:04.549Z,13.60
2018-11-02T09:35:32.633Z,13.70
2018-11-02T09:38:00.686Z,13.90
2018-11-02T09:40:28.771Z,14.00
2018-11-02T09:42:56.994Z,14.10
2018-11-02T09:45:24.989Z,14.00
2018-11-02T09:47:52.989Z,14.00
2018-11-02T09:50:21.154Z,14.10
2018-11-02T09:52:49.175Z,14.20
2018-11-02T09:55:17.310Z,14.30
2018-11-02T09:57:46.127Z,14.30
2018-11-02T10:00:14.809Z,14.30
2018-11-02T10:02:42.821Z,14.20
2018-11-02T10:05:12.003Z,14.20
2018-11-02T10:07:40.838Z,14.40
2018-11-02T10:10:10.245Z,14.30
2018-11-02T10:12:38.311Z,14.30
2018-11-02T10:15:08.339Z,14.20
2018-11-02T10:17:36.543Z,14.00
2018-11-02T10:20:05.118Z,14.00
2018-11-02T10:22:33.158Z,14.00
2018-11-02T10:25:01.494Z,14.00
2018-11-02T10:27:29.574Z,13.90
2018-11-02T10:29:57.583Z,13.80
2018-11-02T10:32:25.640Z,13.70
2018-11-02T10:34:53.658Z,13.80
2018-11-02T10:37:21.710Z,13.80
2018-11-02T10:39:49.784Z,13.80
2018-11-02T10:42:17.885Z,13.90
2018-11-02T10:44:46.789Z,14.00
2018-11-02T10:47:15.282Z,14.10
2018-11-02T10:49:43.297Z,14.10
2018-11-02T10:52:11.642Z,14.20
2018-11-02T10:54:39.744Z,14.30
2018-11-02T10:57:07.745Z,14.30
2018-11-02T10:59:35.894Z,14.20
2018-11-02T11:02:08.390Z,14.10
2018-11-02T11:04:37.181Z,14.10
2018-11-02T11:07:05.654Z,14.20
2018-11-02T11:09:33.710Z,14.30
2018-11-02T11:12:01.862Z,14.20
2018-11-02T11:14:30.233Z,14.10
2018-11-02T11:16:58.355Z,14.20
2018-11-02T11:19:26.410Z,14.40
2018-11-02T11:21:54.502Z,14.50
2018-11-02T11:24:22.514Z,14.60
2018-11-02T11:26:50.553Z,14.70
2018-11-02T11:29:18.656Z,14.60
2018-11-02T11:31:46.655Z,14.50
2018-11-02T11:34:14.701Z,14.30
2018-11-02T11:36:42.786Z,14.30
2018-11-02T11:39:12.650Z,14.30
2018-11-02T11:41:40.670Z,14.30
2018-11-02T11:44:09.602Z,14.30
2018-11-02T11:46:37.686Z,14.40
2018-11-02T11:49:06.873Z,14.50
2018-11-02T11:51:34.866Z,14.70
2018-11-02T11:54:02.977Z,14.80
2018-11-02T11:56:31.019Z,14.80
2018-11-02T11:58:59.346Z,14.80
2018-11-02T12:01:27.367Z,14.80
2018-11-02T12:03:55.506Z,14.90
2018-11-02T12:06:23.521Z,14.80
2018-11-02T12:08:51.577Z,14.80
2018-11-02T12:11:19.665Z,14.70
2018-11-02T12:13:47.681Z,14.70
2018-11-02T12:16:15.734Z,14.70
2018-11-02T12:18:44.729Z,14.70
2018-11-02T12:21:12.775Z,14.70
2018-11-02T12:23:40.910Z,14.70
2018-11-02T12:26:08.986Z,14.60
2018-11-02T12:28:37.125Z,14.80
2018-11-02T12:31:05.139Z,14.70
2018-11-02T12:33:33.233Z,14.80
2018-11-02T12:36:01.313Z,14.90
2018-11-02T12:38:29.410Z,15.00
2018-11-02T12:40:57.799Z,15.00
2018-11-02T12:43:25.986Z,14.90
2018-11-02T12:45:53.963Z,14.90
2018-11-02T12:48:22.080Z,14.80
2018-11-02T12:50:50.129Z,14.80
2018-11-02T12:53:18.211Z,14.80
2018-11-02T12:55:46.358Z,14.80
2018-11-02T12:58:14.487Z,14.80
2018-11-02T13:00:42.534Z,14.70
2018-11-02T13:03:10.617Z,14.70
2018-11-02T13:05:38.618Z,14.80
2018-11-02T13:08:06.722Z,14.90
2018-11-02T13:10:34.730Z,15.10
2018-11-02T13:13:02.794Z,15.10
2018-11-02T13:15:30.873Z,15.10
2018-11-02T13:17:59.323Z,15.10
2018-11-02T13:20:27.282Z,15.10
2018-11-02T13:22:55.339Z,14.90
2018-11-02T13:25:23.413Z,15.00
2018-11-02T13:27:52.042Z,15.00
2018-11-02T13:30:20.134Z,14.90
2018-11-02T13:32:48.078Z,14.80
2018-11-02T13:35:18.242Z,14.80
2018-11-02T13:37:46.901Z,14.80
2018-11-02T13:40:16.219Z,14.80
2018-11-02T13:42:44.550Z,14.70
2018-11-02T13:45:13.822Z,14.60
2018-11-02T13:47:42.442Z,14.50
2018-11-02T13:50:11.028Z,14.30
2018-11-02T13:52:39.301Z,14.10
2018-11-02T13:55:08.109Z,14.10
2018-11-02T13:57:36.503Z,14.00
2018-11-02T14:00:06.200Z,14.10
2018-11-02T14:02:34.205Z,14.20
2018-11-02T14:05:02.592Z,14.20
2018-11-02T14:07:30.682Z,14.20
2018-11-02T14:09:58.694Z,14.20
2018-11-02T14:12:26.725Z,14.30
2018-11-02T14:14:55.478Z,14.20
2018-11-02T14:17:24.764Z,14.10
2018-11-02T14:19:53.678Z,14.00
2018-11-02T14:22:21.862Z,14.00
2018-11-02T14:24:49.929Z,14.10
2018-11-02T14:27:18.014Z,14.10
2018-11-02T14:29:46.199Z,14.10
2018-11-02T14:32:14.329Z,14.10
2018-11-02T14:34:42.374Z,14.10
2018-11-02T14:37:10.461Z,13.90
2018-11-02T14:39:38.554Z,13.90
2018-11-02T14:42:06.638Z,13.80
2018-11-02T14:44:34.681Z,13.70
2018-11-02T14:47:02.912Z,13.70
2018-11-02T14:49:31.109Z,13.60
2018-11-02T14:51:59.370Z,13.60
2018-11-02T14:54:27.454Z,13.50
2018-11-02T14:56:55.525Z,13.50
2018-11-02T14:59:23.623Z,13.40
2018-11-02T15:01:51.642Z,13.30
2018-11-02T15:04:19.688Z,13.30
2018-11-02T15:06:47.775Z,13.30
2018-11-02T15:09:15.826Z,13.20
2018-11-02T15:11:43.934Z,13.10
2018-11-02T15:14:12.022Z,13.00
2018-11-02T15:16:40.110Z,13.00
2018-11-02T15:19:08.493Z,12.90
2018-11-02T15:21:36.581Z,12.80
2018-11-02T15:24:04.602Z,12.70
2018-11-02T15:26:32.709Z,12.50
2018-11-02T15:29:00.690Z,12.40
2018-11-02T15:31:28.740Z,12.30
2018-11-02T15:33:56.803Z,12.10
2018-11-02T15:36:24.883Z,11.90
2018-11-02T15:38:52.956Z,11.70
2018-11-02T15:41:21.045Z,11.60
2018-11-02T15:43:49.158Z,11.50
2018-11-02T15:46:17.143Z,11.40
2018-11-02T15:48:45.182Z,11.20
2018-11-02T15:51:13.223Z,11.10
2018-11-02T15:53:41.406Z,11.10
2018-11-02T15:56:09.455Z,11.10
2018-11-02T15:58:37.510Z,11.00
2018-11-02T16:01:05.647Z,10.90
2018-11-02T16:03:33.697Z,10.80
2018-11-02T16:06:01.804Z,10.70
2018-11-02T16:08:30.177Z,10.60
2018-11-02T16:10:58.461Z,10.50
2018-11-02T16:13:26.554Z,10.40
2018-11-02T16:15:54.640Z,10.20
2018-11-02T16:18:22.678Z,10.20
2018-11-02T16:20:51.011Z,10.30
2018-11-02T16:23:19.102Z,10.40
2018-11-02T16:25:47.190Z,10.30
2018-11-02T16:28:15.366Z,10.20
2018-11-02T16:30:43.450Z,10.00
2018-11-02T16:33:11.538Z,9.80
2018-11-02T16:35:39.582Z,9.60
2018-11-02T16:38:07.702Z,9.50
2018-11-02T16:40:35.753Z,9.40
2018-11-02T16:43:03.799Z,9.20
2018-11-02T16:45:31.854Z,9.20
2018-11-02T16:47:59.922Z,9.00
2018-11-02T16:50:28.098Z,9.00
2018-11-02T16:52:55.960Z,8.90
2018-11-02T16:55:24.266Z,8.90
2018-11-02T16:57:52.437Z,8.80
2018-11-02T17:00:20.457Z,8.70
2018-11-02T17:02:49.151Z,8.70
2018-11-02T17:05:17.686Z,8.50
2018-11-02T17:07:45.735Z,8.50
2018-11-02T17:10:14.831Z,8.60
2018-11-02T17:12:43.373Z,8.70
2018-11-02T17:15:12.275Z,8.90
2018-11-02T17:17:40.322Z,9.00
2018-11-02T17:20:10.413Z,8.90
2018-11-02T17:22:38.459Z,8.70
2018-11-02T17:25:06.867Z,8.40
2018-11-02T17:27:35.122Z,8.30
2018-11-02T17:30:03.505Z,8.20
2018-11-02T17:32:31.513Z,8.10
2018-11-02T17:34:59.519Z,8.00
2018-11-02T17:37:27.666Z,8.00
2018-11-02T17:39:55.691Z,8.00
2018-11-02T17:42:23.737Z,8.00
2018-11-02T17:44:51.782Z,7.90
2018-11-02T17:47:20.137Z,8.00
2018-11-02T17:49:48.153Z,8.00
2018-11-02T17:52:16.162Z,8.20
2018-11-02T17:54:44.282Z,8.40
2018-11-02T17:57:12.494Z,8.30
2018-11-02T17:59:40.785Z,8.00
2018-11-02T18:02:08.873Z,7.90
2018-11-02T18:04:36.941Z,7.80
2018-11-02T18:07:05.598Z,7.80
2018-11-02T18:09:33.661Z,7.80
2018-11-02T18:12:01.774Z,7.80
2018-11-02T18:14:30.066Z,7.80
2018-11-02T18:16:58.080Z,7.70
2018-11-02T18:19:26.146Z,7.70
2018-11-02T18:21:54.504Z,7.60
2018-11-02T18:24:22.621Z,7.60
2018-11-02T18:26:50.614Z,7.50
2018-11-02T18:29:18.838Z,7.50
2018-11-02T18:31:46.964Z,7.60
2018-11-02T18:34:15.115Z,7.50
2018-11-02T18:36:43.217Z,7.50
2018-11-02T18:39:13.653Z,7.50
2018-11-02T18:41:43.181Z,7.60
2018-11-02T18:44:11.779Z,7.70
2018-11-02T18:46:40.932Z,7.70
2018-11-02T18:49:09.365Z,7.80
2018-11-02T18:51:37.946Z,7.90
2018-11-02T18:54:06.220Z,7.80
2018-11-02T18:56:34.479Z,7.70
2018-11-02T18:59:03.265Z,7.60
2018-11-02T19:01:31.462Z,7.60
2018-11-02T19:03:59.704Z,7.60
2018-11-02T19:06:28.214Z,7.80
2018-11-02T19:08:56.453Z,8.00
2018-11-02T19:11:24.630Z,8.00
2018-11-02T19:13:52.863Z,8.00
2018-11-02T19:16:20.926Z,7.80
2018-11-02T19:18:49.187Z,7.70
2018-11-02T19:21:17.723Z,7.70
2018-11-02T19:23:46.150Z,7.70
2018-11-02T19:26:14.226Z,7.70
2018-11-02T19:28:42.493Z,7.70
2018-11-02T19:31:10.759Z,7.70
2018-11-02T19:33:38.979Z,7.60
2018-11-02T19:36:07.266Z,7.50
2018-11-02T19:38:35.564Z,7.60
2018-11-02T19:41:03.744Z,7.60
2018-11-02T19:43:31.904Z,7.50
2018-11-02T19:46:00.112Z,7.60
2018-11-02T19:48:28.213Z,7.60
2018-11-02T19:50:56.467Z,7.60
2018-11-02T19:53:24.736Z,7.60
2018-11-02T19:55:52.890Z,7.60
2018-11-02T19:58:20.981Z,7.70
2018-11-02T20:00:49.278Z,7.80
2018-11-02T20:03:17.456Z,7.90
2018-11-02T20:05:45.603Z,7.80
2018-11-02T20:08:13.892Z,7.80
2018-11-02T20:10:42.177Z,7.80
2018-11-02T20:13:10.462Z,7.80
2018-11-02T20:15:38.481Z,7.80
2018-11-02T20:18:06.725Z,7.70
2018-11-02T20:20:34.817Z,7.60
2018-11-02T20:23:03.023Z,7.50
2018-11-02T20:25:31.581Z,7.50
2018-11-02T20:27:59.880Z,7.60
2018-11-02T20:30:28.619Z,7.50
2018-11-02T20:32:56.783Z,7.60
2018-11-02T20:35:25.116Z,7.50
2018-11-02T20:37:53.212Z,7.50
2018-11-02T20:40:21.402Z,7.40
2018-11-02T20:42:49.538Z,7.50
2018-11-02T20:45:17.973Z,7.50
2018-11-02T20:47:50.562Z,7.50
2018-11-02T20:50:19.018Z,7.60
2018-11-02T20:52:47.424Z,7.60
2018-11-02T20:55:15.948Z,7.60
2018-11-02T20:57:44.298Z,7.60
2018-11-02T21:00:14.168Z,7.50
2018-11-02T21:02:43.088Z,7.60
2018-11-02T21:05:13.562Z,7.60
2018-11-02T21:07:42.022Z,7.70
2018-11-02T21:10:11.703Z,7.80
2018-11-02T21:12:40.023Z,8.00
2018-11-02T21:15:11.190Z,8.20
2018-11-02T21:17:39.658Z,8.10
2018-11-02T21:20:10.214Z,8.00
2018-11-02T21:22:38.616Z,7.90
2018-11-02T21:25:07.649Z,7.80
2018-11-02T21:27:35.917Z,7.80
2018-11-02T21:30:04.995Z,7.90
2018-11-02T21:32:33.059Z,8.00
2018-11-02T21:35:01.346Z,8.30
2018-11-02T21:37:29.626Z,8.20
2018-11-02T21:39:57.949Z,8.30
2018-11-02T21:42:26.262Z,8.20
2018-11-02T21:44:54.772Z,8.00
2018-11-02T21:47:23.239Z,7.90
2018-11-02T21:49:51.670Z,7.80
2018-11-02T21:52:19.906Z,7.90
2018-11-02T21:54:48.154Z,7.90
2018-11-02T21:57:16.210Z,7.80
2018-11-02T21:59:50.986Z,7.80
2018-11-02T22:02:19.208Z,8.20
2018-11-02T22:04:47.287Z,8.20
2018-11-02T22:07:15.542Z,8.00
2018-11-02T22:09:43.768Z,7.90
2018-11-02T22:12:12.078Z,7.80
2018-11-02T22:14:40.823Z,7.80
2018-11-02T22:17:09.201Z,7.70
2018-11-02T22:19:37.227Z,7.60
2018-11-02T22:22:07.238Z,7.60
2018-11-02T22:24:35.926Z,7.60
2018-11-02T22:27:04.776Z,7.70
2018-11-02T22:29:32.996Z,7.70
2018-11-02T22:32:01.967Z,7.80
2018-11-02T22:34:30.293Z,7.80
2018-11-02T22:36:58.396Z,8.00
2018-11-02T22:39:26.681Z,8.10
2018-11-02T22:41:55.117Z,8.10
2018-11-02T22:44:23.391Z,8.10
2018-11-02T22:46:52.643Z,8.00
2018-11-02T22:49:21.045Z,7.90
2018-11-02T22:51:49.166Z,7.90
2018-11-02T22:54:17.462Z,7.90
2018-11-02T22:56:46.322Z,7.90
2018-11-02T22:59:16.120Z,7.90
2018-11-02T23:01:44.864Z,7.90
2018-11-02T23:04:13.211Z,7.80
2018-11-02T23:06:41.928Z,7.80
2018-11-02T23:09:10.175Z,7.90
2018-11-02T23:11:38.631Z,7.80
2018-11-02T23:14:07.167Z,7.70
2018-11-02T23:16:35.825Z,7.70
2018-11-02T23:19:04.054Z,7.70
2018-11-02T23:21:32.299Z,7.80
2018-11-02T23:24:00.584Z,7.80
2018-11-02T23:26:28.979Z,7.90
2018-11-02T23:28:57.150Z,7.80
2018-11-02T23:31:25.372Z,7.80
2018-11-02T23:33:53.806Z,7.80
2018-11-02T23:36:21.809Z,7.80
2018-11-02T23:38:50.172Z,7.90
2018-11-02T23:41:20.646Z,7.90
2018-11-02T23:43:49.423Z,7.90
2018-11-02T23:46:17.482Z,8.00
2018-11-02T23:48:45.660Z,8.00
2018-11-02T23:51:13.865Z,7.90
2018-11-02T23:53:42.383Z,7.80
2018-11-02T23:56:10.661Z,7.90
2018-11-02T23:58:38.793Z,7.90
